This is the latest recevied weather packets stored in our database for station/object DO7ZT-10. If no packets are shown the sender has not sent any weather packets the latest 1 day(s).
| Time | Temp. | Humidity | Pressure | Rain* | Wind** | Luminosity | Snow |
|---|---|---|---|---|---|---|---|
| 1778085226 | 18.33° C | 72% | 1005.2 hPa | - | - | - | - |
| 1778079825 | 20.56° C | 58% | 1005.5 hPa | - | - | - | - |
| 1778078925 | 21.11° C | 60% | 1005.6 hPa | - | - | - | - |
| 1778078025 | 21.11° C | 62% | 1005.7 hPa | - | - | - | - |
| 1778077125 | 20.56° C | 66% | 1005.7 hPa | - | - | - | - |
| 1778076225 | 21.11° C | 60% | 1005.9 hPa | - | - | - | - |
| 1778069024 | 20° C | 57% | 1006 hPa | - | - | - | - |
| 1778068124 | 20° C | 60% | 1006 hPa | - | - | - | - |
| 1778067224 | 18.89° C | 67% | 1006 hPa | - | - | - | - |
| 1778066324 | 18.89° C | 65% | 1006.1 hPa | - | - | - | - |
| 1778065424 | 17.78° C | 75% | 1006.1 hPa | - | - | - | - |
| 1778058223 | 17.78° C | 80% | 1005.6 hPa | - | - | - | - |
| 1778057323 | 16.67° C | 82% | 1005.5 hPa | - | - | - | - |
| 1778056423 | 17.22° C | 83% | 1005.3 hPa | - | - | - | - |
| 1778055523 | 16.67° C | 85% | 1005.2 hPa | - | - | - | - |
| 1778054623 | 16.67° C | 90% | 1005.1 hPa | - | - | - | - |
| 1778053723 | 15.56° C | 96% | 1005.2 hPa | - | - | - | - |
| 1778052823 | 15° C | 95% | 1005.4 hPa | - | - | - | - |
| 1778051923 | 14.44° C | 100% | 1004.8 hPa | - | - | - | - |
| 1778048322 | 13.33° C | 100% | 1005.3 hPa | - | - | - | - |
| 1778046522 | 12.22° C | 100% | 1005.1 hPa | - | - | - | - |
| 1778045622 | 12.22° C | 100% | 1005.2 hPa | - | - | - | - |
| 1778044722 | 12.22° C | 100% | 1005.2 hPa | - | - | - | - |
| 1778043822 | 11.67° C | 100% | 1005.1 hPa | - | - | - | - |
| 1778042922 | 11.67° C | 100% | 1005 hPa | - | - | - | - |
* Rain since midnight (hover to see other rain measurements)
** Current wind speed in m/s (hover to see current wind gust speed)